Subaru Cyclo Cup - Day Two - 12:00

Sunday, November 15, 2015 12:04 PM (GMT-8) - Final results

Race info
Sport: Cycling - cyclocross
Location: Lakewood, WA, United States
Start type: Mass start
Racers: 69
Timed on: iPad
Timed with: Webscorer PRO 2.1
Chip timing: RFID - LLRP
Updated: Sunday, November 15, 2015 12:58 PM (GMT-8)
Organized by: MFG Presents
Race website: www.mfgcyclocross.com

Contact organizer

Use this form to send an email to the organizer.

Your name
Your email address
Confirm email address
Message to organizer
Send

Subaru Cyclo Cup - Day Two - 12:00

  • Cat 3 Men
Place Bib Racer name Affiliation Category Age Finish time
1262Conor C MartinNorco/Kelowna Cycle - BC000355 Cat 3 Men14 42:24.15--100%7.54%7.10%12:04:48.4
2259Garrett SczechowskiDyna Racing - 345782 Cat 3 Men23 42:24.55+0:00.4+0.02%99.98%7.53%7.08%12:04:48.4
3255Collin Van SlykeRacepace - 338762 Cat 3 Men24 43:03.15+0:39.0+1.53%98.49%6.12%5.67%12:04:48.4
4246Kevin HansenRavenna Capital Managment - 221895 Cat 3 Men32 43:16.95+0:52.8+2.08%97.97%5.62%5.17%12:04:48.4
5253Daniel HertelRacepace - 396453 Cat 3 Men25 43:47.15+1:23.0+3.26%96.84%4.52%4.07%12:04:48.4
6261Patrick DunnSCCA / Starbucks Cycling - 276042 Cat 3 Men26 44:00.75+1:36.6+3.80%96.34%4.03%3.57%12:04:48.4
7247Bryan TorianOlympia Orthopeadic Associates - 342538 Cat 3 Men38 45:26.05+3:01.9+7.15%93.33%0.93%0.46%12:04:48.4
8258DAVID HOWARDOne-Day Cat 3 Men31 45:32.05+3:07.9+7.39%93.12%0.71%0.24%12:04:48.4
9245Nick BoroughsSoft Like Kitten - 415032 Cat 3 Men28 45:35.95+3:11.8+7.54%92.99%0.57%0.09%12:04:48.4
10257Justin ResnickApex/Cycle U - 284874 Cat 3 Men32 45:41.15+3:17.0+7.74%92.81%0.38%-0.09%12:04:48.4
11251Dieter LaskowskiPCP Racing - 360182 Cat 3 Men29 46:03.25+3:39.1+8.61%92.07%-0.42%-0.90%12:04:48.4
12263Stewart BowermanRecycled Cycles Racing - 367332 Cat 3 Men30 46:50.35+4:26.2+10.46%90.53%-2.13%-2.62%12:04:48.4
13300Leigh ThurgoodHagens Berman Society Consulting - 393590 Cat 3 Men34 47:45.65+5:21.5+12.64%88.78%-4.14%-4.64%12:04:48.4
14295Ronan CahillApex Racing/Cycle U - 291453 Cat 3 Men29 47:54.15+5:30.0+12.97%88.52%-4.45%-4.95%12:04:48.4
15347Tim Hubner286035 Cat 3 Men35 47:58.15+5:34.0+13.13%88.40%-4.60%-5.10%12:04:48.4
16252Jeff Rasor210470 Cat 3 Men31 48:29.05+6:04.9+14.34%87.46%-5.72%-6.23%12:04:48.4
17250Luke OgdenAudi - 333612 Cat 3 Men24 49:21.85+6:57.7+16.42%85.90%-7.64%-8.15%12:04:48.4
18249Peter BeelsAudi - 235743 Cat 3 Men27 49:55.45+7:31.3+17.74%84.93%-8.86%-9.38%12:04:48.4
19248Graham Robinson416952 Cat 3 Men22 -2 laps3-----12:04:48.4
20260Wyatt MasonRad Racing NW - 378713 Cat 3 Men16 -4 laps1-----12:04:48.4
-241Alejandro GalindoVancouver Cat 3 Men32 DNF0-----12:04:48.4
-243Corey GrobeSteed Cycles - CAN19870816 Cat 3 Men28 DNF0-----12:04:48.4
-264Adam KachmanCascadia Bicycling Team - One-Day Cat 3 Men26 DNF0-----12:04:48.4
  • Cat 3 Men 35+
Place Bib Racer name Affiliation Category Age Finish time
1345Andrew MorrisonSCCA/Starucks Cycling - 369322 Cat 3 Men 35+36 45:11.05--100%5.61%5.89%12:04:48.4
2359Mark FredaSpider's SKI & SPORTS - 120989 Cat 3 Men 35+42 45:42.05+0:31.0+1.14%98.87%4.53%4.81%12:04:48.4
3354Brian FalkowskiPC4 Men Racing - 398109 Cat 3 Men 35+41 45:42.55+0:31.5+1.16%98.85%4.51%4.80%12:04:48.4
4350Dwaine Trummert391529 Cat 3 Men 35+46 46:02.25+0:51.2+1.89%98.15%3.83%4.11%12:04:48.4
5357Colin FergusonFanatik Bike Co. Race Team - 179698 Cat 3 Men 35+38 46:03.95+0:52.9+1.95%98.09%3.77%4.05%12:04:48.4
6343Erik AndersonOlympia Orthopaedic Associates - 161052 Cat 3 Men 35+40 47:08.55+1:57.5+4.33%95.85%1.52%1.81%12:04:48.4
7341James HartDyna Racing - 339566 Cat 3 Men 35+40 47:36.25+2:25.2+5.36%94.92%0.55%0.85%12:04:48.4
8352Rob McgartyRecycled Cycles Racing - 328238 Cat 3 Men 35+40 48:25.25+3:14.2+7.16%93.32%-1.15%-0.85%12:04:48.4
9348Jeff CotaOld Town Bicycle P/B Green Earthworks - 360385 Cat 3 Men 35+39 48:26.45+3:15.4+7.21%93.28%-1.19%-0.89%12:04:48.4
10358Michael Mclane388581 Cat 3 Men 35+36 49:09.85+3:58.8+8.81%91.90%-2.70%-2.40%12:04:48.4
11383Jacob SheppardRecycled Cycles Racing - 381419 Cat 3 Men 35+35 49:22.55+4:11.5+9.28%91.51%-3.15%-2.84%12:04:48.4
12382Kevin Sayler390350 Cat 3 Men 35+42 49:23.05+4:12.0+9.30%91.50%-3.16%-2.86%12:04:48.4
13360Steven Moe371791 Cat 3 Men 35+43 49:40.75+4:29.7+9.95%90.95%-3.78%-3.47%12:04:48.4
14344George Romer30491 Cat 3 Men 35+44 52:15.85+7:04.8+15.67%86.45%-9.18%-8.86%12:04:48.4
15362Marco DesimoneHammer And Awl - 113202 Cat 3 Men 35+38 -1 lap4-----12:04:48.4
16361Craig HetheringtonKeller Roehrback - 56451 Cat 3 Men 35+44 -1 lap4-----12:04:48.4
-346Clinton SealBicycle Centers - 254885 Cat 3 Men 35+34 DNF0-----12:04:48.4
-351Aaron VanderwaalMafia Racing - 236444 Cat 3 Men 35+41 DNF0-----12:04:48.4
-356Pete SuperHagens Berman Society Consulting - 381072 Cat 3 Men 35+40 DNF0-----12:04:48.4
  • Cat 3 Men 45+
Place Bib Racer name Affiliation Category Age Finish time
1600Steve HindmanPen Velo Racing/Summit Bikes - 62921 Cat 3 Men 45+48 47:51.35--100%3.31%3.04%12:04:48.4
2555Erik OlsonCucina Fresca - 26714 Cat 3 Men 45+50 48:10.05+0:18.7+0.65%99.35%2.68%2.41%12:04:48.4
3566Peter AvolioMetier - 288366 Cat 3 Men 45+50 48:22.35+0:31.0+1.08%98.93%2.27%1.99%12:04:48.4
4597Chris Wood389465 Cat 3 Men 45+52 48:30.05+0:38.7+1.35%98.67%2.01%1.73%12:04:48.4
5546Todd Reedy457546 Cat 3 Men 45+52 48:36.05+0:44.7+1.56%98.47%1.80%1.53%12:04:48.4
6545Owen ScottSteed Cycles - BC001656 Cat 3 Men 45+48 48:43.85+0:52.5+1.83%98.20%1.54%1.27%12:04:48.4
7569Sven Koehler487628 Cat 3 Men 45+45 48:55.65+1:04.3+2.24%97.81%1.14%0.87%12:04:48.4
8550Denny BartlettBikesport - 49565 Cat 3 Men 45+47 49:04.15+1:12.8+2.54%97.53%0.86%0.58%12:04:48.4
9544TODD ANDERSONBike Masters - 1713 Cat 3 Men 45+53 49:19.35+1:28.0+3.06%97.03%0.35%0.07%12:04:48.4
10554John DrenningDyna Racing - 121908 Cat 3 Men 45+47 49:23.35+1:32.0+3.20%96.90%0.21%-0.07%12:04:48.4
11564Matthew StanigarDyna Racing - 76958 Cat 3 Men 45+46 49:24.85+1:33.5+3.26%96.85%0.16%-0.12%12:04:48.4
12548Paul ClaeysDyna Racing - 362192 Cat 3 Men 45+51 49:41.45+1:50.1+3.83%96.31%-0.40%-0.68%12:04:48.4
13541Darrin GrundEV/DEVO P/B Catalyst Kinetics - CAN19661217 Cat 3 Men 45+49 50:06.65+2:15.3+4.71%95.50%-1.25%-1.53%12:04:48.4
14568Forrest MurphyBlue Rooster - 278903 Cat 3 Men 45+44 50:17.25+2:25.9+5.08%95.16%-1.60%-1.89%12:04:48.4
15561Nathan WebsterBlue Rooster - 52142 Cat 3 Men 45+48 50:21.75+2:30.4+5.24%95.02%-1.75%-2.04%12:04:48.4
16598Chris MendozaGreen Bike Team - 132482 Cat 3 Men 45+54 50:37.75+2:46.4+5.80%94.52%-2.29%-2.58%12:04:48.4
17549Kenneth RamirezNemesis Racing - 255649 Cat 3 Men 45+46 51:18.45+3:27.1+7.21%93.27%-3.66%-3.95%12:04:48.4
18552Nigel Newby-HouseMotofish - One-Day Cat 3 Men 45+46 52:09.35+4:18.0+8.99%91.76%-5.38%-5.67%12:04:48.4
19565Paul DingerCucina Fresca - 271936 Cat 3 Men 45+52 -1 lap4-----12:04:48.4
20588Jason LandDyna Racing - 107699 Cat 3 Men 45+47 -1 lap4-----12:04:48.4
21567Reeve GearyBlue Rooster - 12989 Cat 3 Men 45+49 -1 lap4-----12:04:48.4
-542Tim KiblerPCP Racing - 66004 Cat 3 Men 45+49 DNF0-----12:04:48.4
-543Bob KrugerNative - 224684 Cat 3 Men 45+46 DNF0-----12:04:48.4
-551Pat MillerHagens Berman Society Consulting - 416814 Cat 3 Men 45+44 DNF0-----12:04:48.4
-556Randy ManionDyna Racing - 288325 Cat 3 Men 45+46 DNF0-----12:04:48.4
-579Kempton Baker253667 Cat 3 Men 45+50 DNF0-----12:04:48.4
-599Carl AntonRecycled Cycles Racing - One-Day Cat 3 Men 45+45 DNF0-----12:04:48.4